Flight Track Log - Related Links

Times and Time Zones

All times are in EDT time to prevent confusion due to time zone crossing. See the DAL39 flight status page for this flight to view local times or setup timezone preferences in your user account.


Time Position Orientation Groundspeed Altitude Reporting Facility
EDT Latitude Longitude Course Direction KTS MPH feet Rate Location/Type
Sat 04:24:44 AM 51.4650 -0.4330 89° East 181 208 400  Level FlightAware ADS-B
Sat 04:25:05 AM 51.4604 -0.4041 104° East 190 219 1,300 2,438 Climbing FlightAware ADS-B
Sat 04:25:16 AM 51.4530 -0.3957 144° Southeast 196 226 1,700 2,000 Climbing FlightAware ADS-B
Sat 04:25:20 AM 51.4489 -0.3939 165° South 204 235 1,800 1,500 Climbing FlightAware ADS-B
Sat 04:25:28 AM 51.4417 -0.3938 179° South 209 241 2,000 1,667 Climbing FlightAware ADS-B
Sat 04:25:38 AM 51.4323 -0.3995 201° Southwest 215 247 2,300 1,714 Climbing FlightAware ADS-B
Sat 04:25:49 AM 51.4236 -0.4095 216° Southwest 218 251 2,600 1,895 Climbing FlightAware ADS-B
Sat 04:25:57 AM 51.4168 -0.4181 218° Southwest 219 252 2,900 2,000 Climbing FlightAware ADS-B
Sat 04:26:01 AM 51.4140 -0.4225 225° Southwest 224 258 3,000 750 Climbing FlightAware ADS-B
Sat 04:26:05 AM 51.4113 -0.4277 230° Southwest 231 266 3,000  Level FlightAware ADS-B
Sat 04:26:09 AM 51.4092 -0.4334 240° Southwest 236 272 3,000 667 Level FlightAware ADS-B
Sat 04:26:14 AM 51.4075 -0.4405 249° West 238 274 3,100 1,500 Climbing FlightAware ADS-B
Sat 04:26:17 AM 51.4065 -0.4469 256° West 241 277 3,200 857 Climbing FlightAware ADS-B
Sat 04:26:21 AM 51.4058 -0.4541 261° West 246 283 3,200  Level FlightAware ADS-B
Sat 04:26:25 AM 51.4053 -0.4608 263° West 251 289 3,200 1,059 Level FlightAware ADS-B
Sat 04:26:38 AM 51.4047 -0.4860 268° West 262 302 3,500 1,615 Climbing FlightAware ADS-B
Sat 04:26:51 AM 51.4050 -0.5116 271° West 274 315 3,900 1,778 Climbing FlightAware ADS-B
Sat 04:27:05 AM 51.4055 -0.5406 272° West 284 327 4,300 2,200 Climbing FlightAware ADS-B
Sat 04:27:21 AM 51.4066 -0.5742 273° West 287 330 5,000 2,609 Climbing FlightAware ADS-B
Sat 04:27:28 AM 51.4071 -0.5892 273° West 290 334 5,300 2,182 Climbing FlightAware ADS-B
Sat 04:27:32 AM 51.4076 -0.5985 275° West 290 334 5,400 2,526 Climbing FlightAware ADS-B
Sat 04:27:47 AM 51.4113 -0.6302 281° West 291 335 6,100 2,903 Climbing FlightAware ADS-B
Sat 04:28:03 AM 51.4152 -0.6634 281° West 290 334 6,900 2,813 Climbing FlightAware ADS-B
Sat 04:28:19 AM 51.4195 -0.6962 282° West 290 334 7,600 2,323 Climbing FlightAware ADS-B
Sat 04:28:34 AM 51.4236 -0.7279 282° West 296 341 8,100 2,400 Climbing FlightAware ADS-B
Sat 04:28:49 AM 51.4276 -0.7607 281° West 296 341 8,800 2,710 Climbing FlightAware ADS-B
Sat 04:29:05 AM 51.4317 -0.7956 281° West 298 343 9,500 2,444 Climbing FlightAware ADS-B
Sat 04:29:16 AM 51.4346 -0.8196 281° West 302 348 9,900 1,688 Climbing FlightAware ADS-B
Sat 04:29:37 AM 51.4408 -0.8664 282° West 320 368 10,400 1,615 Climbing FlightAware ADS-B
Sat 04:30:08 AM 51.4538 -0.9382 286° West 337 388 11,300 1,452 Climbing FlightAware ADS-B
Sat 04:30:39 AM 51.4686 -1.0153 287° West 364 419 11,900 952 Climbing FlightAware ADS-B
Sat 04:31:11 AM 51.4837 -1.0996 286° West 369 425 12,300 871 Climbing FlightAware ADS-B
Sat 04:31:41 AM 51.4990 -1.1799 287° West 373 429 12,800 590 Climbing FlightAware ADS-B
Sat 04:32:12 AM 51.5140 -1.2601 287° West 373 429 12,900 240 Climbing FlightAware ADS-B
Sat 04:32:31 AM 51.5232 -1.3120 286° West 372 428 13,000 824 Climbing FlightAware ADS-B
Sat 04:33:03 AM 51.5450 -1.3905 294° West 375 432 13,600 1,672 Climbing FlightAware ADS-B
Sat 04:33:32 AM 51.5683 -1.4642 297° West 382 440 14,700 2,000 Climbing FlightAware ADS-B
Sat 04:34:03 AM 51.5937 -1.5428 298° West 395 455 15,600 1,869 Climbing FlightAware ADS-B
Sat 04:34:33 AM 51.6267 -1.6209 304° West 399 459 16,600 2,066 Climbing FlightAware ADS-B
Sat 04:35:04 AM 51.6533 -1.7049 297° West 405 466 17,700 2,066 Climbing FlightAware ADS-B
Sat 04:35:34 AM 51.6788 -1.7858 297° West 411 473 18,700 1,833 Climbing FlightAware ADS-B
Sat 04:35:40 AM 51.6831 -1.8023 293° West 412 474 18,800 1,385 Climbing FlightAware ADS-B
Sat 04:35:47 AM 51.6877 -1.8237 289° West 414 476 19,000 1,929 Climbing FlightAware ADS-B
Sat 04:36:08 AM 51.6989 -1.8846 287° West 418 481 19,700 1,811 Climbing FlightAware ADS-B
Sat 04:36:40 AM 51.7183 -1.9797 288° West 423 487 20,600 1,645 Climbing FlightAware ADS-B
Sat 04:37:10 AM 51.7361 -2.0705 288° West 429 494 21,400 1,574 Climbing FlightAware ADS-B
Sat 04:37:41 AM 51.7543 -2.1639 287° West 435 501 22,200 1,574 Climbing FlightAware ADS-B
Sat 04:38:11 AM 51.7725 -2.2590 287° West 439 505 23,000 1,475 Climbing FlightAware ADS-B
Sat 04:38:42 AM 51.7911 -2.3563 287° West 444 511 23,700 1,273 Climbing FlightAware ADS-B
Sat 04:39:17 AM 51.8127 -2.4696 287° West 452 520 24,400 1,273 Climbing FlightAware ADS-B
Sat 04:39:48 AM 51.8302 -2.5704 286° West 455 524 25,100 1,355 Climbing FlightAware ADS-B
Sat 04:40:19 AM 51.8451 -2.6735 283° West 459 528 25,800 882 Climbing FlightAware ADS-B
Sat 04:41:30 AM 51.8770 -2.9030 283° West 482 555 26,600 649 Climbing FlightAware ADS-B
Sat 04:42:10 AM 51.8970 -3.0510 282° West 498 573 27,000 776 Climbing FlightAware ADS-B
Sat 04:42:55 AM 51.9210 -3.2130 284° West 509 586 27,700 1,169 Climbing FlightAware ADS-B
Sat 04:43:27 AM 51.9500 -3.3310 292° West 510 587 28,500 1,437 Climbing FlightAware ADS-B
Sat 04:44:06 AM 51.9930 -3.4660 297° West 511 588 29,400 1,301 Climbing FlightAware ADS-B
Sat 04:44:50 AM 52.0420 -3.6140 298° West 510 587 30,300 1,103 Climbing FlightAware ADS-B
Sat 04:45:33 AM 52.0870 -3.7490 299° West 511 588 31,000 955 Climbing FlightAware ADS-B
Sat 04:46:18 AM 52.1410 -3.9110 299° West 511 588 31,700 714 Climbing FlightAware ADS-B
Sat 04:46:57 AM 52.1830 -4.0370 299° West 511 588 32,000 225 Climbing FlightAware ADS-B
Sat 04:47:38 AM 52.2310 -4.1820 298° West 507 583 32,000  Level FlightAware ADS-B
Sat 04:48:18 AM 52.2750 -4.3160 298° West 506 582 32,000  Level FlightAware ADS-B
Sat 04:48:54 AM 52.3150 -4.4380 298° West 504 580 32,000  Level FlightAware ADS-B
Sat 04:49:40 AM 52.3640 -4.5900 298° West 501 577 32,000  Level FlightAware ADS-B
Sat 04:50:13 AM 52.3980 -4.6950 298° West 501 577 32,000  Level FlightAware ADS-B
Sat 04:50:53 AM 52.4420 -4.8350 297° West 500 575 32,000  Level FlightAware ADS-B
Sat 04:51:33 AM 52.4840 -4.9690 297° West 499 574 32,000  Level FlightAware ADS-B
Sat 04:52:14 AM 52.5250 -5.1010 297° West 498 573 32,000  Level FlightAware ADS-B
Sat 04:52:48 AM 52.5620 -5.2180 298° West 497 572 32,000  Level FlightAware ADS-B
Sat 04:53:38 AM 52.6150 -5.3870 297° West 495 570 32,000  Level FlightAware ADS-B
Sat 04:54:18 AM 52.6560 -5.5210 297° West 494 568 32,000  Level FlightAware ADS-B
Sat 04:54:58 AM 52.6970 -5.6560 297° West 493 567 32,000  Level FlightAware ADS-B
Sat 04:55:46 AM 52.7460 -5.8170 297° West 493 567 32,000  Level FlightAware ADS-B
Sat 04:56:26 AM 52.7870 -5.9510 297° West 491 565 32,000  Level FlightAware ADS-B
Sat 04:57:07 AM 52.8280 -6.0870 297° West 489 563 32,000  Level FlightAware ADS-B
Sat 04:57:48 AM 52.8690 -6.2260 296° West 488 562 32,000  Level FlightAware ADS-B
Sat 04:58:32 AM 52.9110 -6.3670 296° West 486 559 32,000  Level FlightAware ADS-B
Sat 04:59:16 AM 52.9560 -6.5200 296° West 484 557 32,000  Level FlightAware ADS-B
Sat 04:59:56 AM 52.9960 -6.6540 296° West 484 557 32,000  Level FlightAware ADS-B
Sat 05:00:38 AM 53.0360 -6.7920 296° West 483 556 32,000  Level FlightAware ADS-B
Sat 05:01:18 AM 53.0750 -6.9260 296° West 483 556 32,000  Level FlightAware ADS-B
Sat 05:02:03 AM 53.1090 -7.0460 295° West 483 556 32,000  Level FlightAware ADS-B
Sat 05:02:43 AM 53.1530 -7.1990 296° West 482 555 32,000  Level FlightAware ADS-B
Sat 05:03:27 AM 53.1950 -7.3470 295° West 483 556 32,000  Level FlightAware ADS-B
Sat 05:04:04 AM 53.2330 -7.4810 295° West 483 556 32,000  Level FlightAware ADS-B
Sat 05:04:44 AM 53.2720 -7.6180 296° West 484 557 32,000  Level FlightAware ADS-B
Sat 05:05:06 AM 53.2920 -7.6930 294° West 484 557 32,000  Level FlightAware ADS-B
Sat 05:05:51 AM 53.3310 -7.8330 295° West 482 555 32,000  Level FlightAware ADS-B
Sat 05:06:25 AM 53.3590 -7.9340 295° West 483 556 32,000  Level FlightAware ADS-B
Sat 05:07:10 AM 53.4030 -8.0960 295° West 483 556 32,000  Level FlightAware ADS-B
Sat 05:07:49 AM 53.4400 -8.2300 295° West 487 560 32,000  Level FlightAware ADS-B
Sat 05:08:28 AM 53.4740 -8.3560 294° West 488 562 32,000  Level FlightAware ADS-B
Sat 05:09:13 AM 53.5200 -8.5280 294° West 486 559 32,000  Level FlightAware ADS-B
Sat 05:09:58 AM 53.5630 -8.6890 294° West 491 565 32,000  Level FlightAware ADS-B
Sat 05:10:34 AM 53.5970 -8.8170 294° West 491 565 32,000  Level FlightAware ADS-B
Sat 05:11:05 AM 53.6240 -8.9210 294° West 491 565 32,000  Level FlightAware ADS-B
Sat 05:11:51 AM 53.6600 -9.0570 294° West 493 567 32,000  Level FlightAware ADS-B
Sat 05:12:35 AM 53.7010 -9.2150 294° West 493 567 32,000  Level FlightAware ADS-B
Sat 05:13:14 AM 53.7370 -9.3560 293° West 492 566 32,000  Level FlightAware ADS-B
Sat 05:13:56 AM 53.7730 -9.4950 294° West 493 567 32,000  Level FlightAware ADS-B
Sat 05:14:39 AM 53.8190 -9.6780 293° West 493 567 32,000  Level FlightAware ADS-B
Sat 05:15:16 AM 53.8470 -9.7890 293° West 493 567 32,000  Level FlightAware ADS-B
Sat 05:15:53 AM 53.8840 -9.9380 293° West 492 566 32,000  Level FlightAware ADS-B
Sat 05:16:34 AM 53.9200 -10.0820 293° West 492 566 32,000  Level FlightAware ADS-B
Sat 05:17:24 AM 53.9620 -10.2500 293° West 493 567 32,000  Level FlightAware ADS-B
Sat 05:18:10 AM 53.9940 -10.3880 292° West 490 564 32,000  Level FlightAware ADS-B
Sat 05:18:58 AM 54.0340 -10.5490 293° West 491 565 32,000  Level FlightAware ADS-B
Sat 05:19:38 AM 54.0690 -10.6910 293° West 490 564 32,000  Level FlightAware ADS-B
Sat 05:20:27 AM 54.1170 -10.8930 292° West 491 565 32,000  Level FlightAware ADS-B
Sat 05:21:11 AM 54.1610 -11.0770 292° West 491 565 32,000  Level FlightAware ADS-B
Sat 05:21:51 AM 54.1950 -11.2190 292° West 490 564 32,000  Level FlightAware ADS-B
Sat 05:22:37 AM 54.2330 -11.3840 292° West 493 567 32,000  Level FlightAware ADS-B
Sat 05:23:16 AM 54.2660 -11.5270 292° West 494 568 32,000  Level FlightAware ADS-B
Sat 05:23:54 AM 54.2960 -11.6560 292° West 494 568 32,000  Level FlightAware ADS-B
Sat 05:24:35 AM 54.3250 -11.7800 292° West 495 570 32,000  Level FlightAware ADS-B
Sat 05:25:22 AM 54.3660 -11.9600 291° West 495 570 32,000  Level FlightAware ADS-B
Sat 05:26:19 AM 54.4070 -12.1420 291° West 495 570 32,000  Level FlightAware ADS-B
Sat 05:26:56 AM 54.4470 -12.3220 291° West 494 568 32,000  Level FlightAware ADS-B
Sat 05:27:41 AM 54.4840 -12.4880 291° West 494 568 32,000  Level FlightAware ADS-B
Sat 05:28:21 AM 54.5140 -12.6240 291° West 495 570 32,000  Level FlightAware ADS-B
Sat 05:29:04 AM 54.5520 -12.7960 291° West 490 564 32,000 -69 Level FlightAware ADS-B
Sat 05:29:48 AM 54.5850 -12.9440 291° West 484 557 31,900 -628 Descending FlightAware ADS-B
Sat 05:30:30 AM 54.6200 -13.1060 291° West 483 556 31,100 -667 Descending FlightAware ADS-B
Sat 05:31:09 AM 54.6480 -13.2380 290° West 482 555 31,000 -65 Descending FlightAware ADS-B
Sat 05:32:02 AM 54.6860 -13.4250 289° West 482 555 31,000  Level FlightAware ADS-B
Sat 05:32:51 AM 54.7170 -13.5770 290° West 482 555 31,000  Level FlightAware ADS-B
Sat 05:33:28 AM 54.7400 -13.6920 289° West 482 555 31,000  Level FlightAware ADS-B
Sat 05:34:16 AM 54.7690 -13.8410 289° West 482 555 31,000  Level FlightAware ADS-B
Sat 05:34:52 AM 54.7910 -13.9530 289° West 482 555 31,000  Level FlightAware ADS-B
Sat 05:35:54 AM 54.8300 -14.1460 289° West 482 555 31,000  Level FlightAware ADS-B
Sat 05:36:30 AM 54.8520 -14.2580 289° West 482 555 31,000  Level FlightAware ADS-B
Sat 05:37:06 AM 54.8740 -14.3700 289° West 482 555 31,000  Level FlightAware ADS-B
Sat 05:37:43 AM 54.8970 -14.4850 289° West 482 555 31,000  Level FlightAware ADS-B
Sat 05:38:31 AM 54.9260 -14.6350 289° West 482 555 31,000  Level FlightAware ADS-B
Sat 05:39:08 AM 54.9490 -14.7500 289° West 482 555 31,000  Level FlightAware ADS-B
Sat 05:39:56 AM 54.9790 -14.9000 289° West 482 555 31,000  Level FlightAware ADS-B
Sat 05:41:09 AM 55.0240 -15.1280 289° West 482 555 31,000  Level FlightAware ADS-B
Sat 05:43:00 AM 55.0452 -15.5170 276° West  Level Estimated
Sat 05:44:00 AM 55.0562 -15.7274 275° West  Level Estimated
Sat 05:45:00 AM 55.0668 -15.9380 275° West  Level Estimated
Sat 05:46:00 AM 55.0772 -16.1518 275° West  Level Estimated
Sat 05:47:00 AM 55.0872 -16.3658 275° West  Level Estimated
Sat 05:48:00 AM 55.0969 -16.5799 275° West  Level Estimated
Sat 05:49:00 AM 55.1061 -16.7941 274° West  Level Estimated
Sat 05:50:00 AM 55.1150 -17.0084 274° West  Level Estimated
Sat 05:51:00 AM 55.1235 -17.2228 274° West  Level Estimated
Sat 05:52:00 AM 55.1317 -17.4373 274° West  Level Estimated
Sat 05:53:00 AM 55.1394 -17.6519 274° West  Level Estimated
Sat 05:54:00 AM 55.1468 -17.8665 274° West  Level Estimated
Sat 05:55:00 AM 55.1538 -18.0812 273° West  Level Estimated
Sat 05:56:00 AM 55.1604 -18.2960 273° West  Level Estimated
Sat 05:57:00 AM 55.1667 -18.5109 273° West  Level Estimated
Sat 05:58:00 AM 55.1726 -18.7258 273° West  Level Estimated
Sat 05:59:00 AM 55.1781 -18.9408 273° West  Level Estimated
Sat 06:00:00 AM 55.1832 -19.1559 272° West  Level Estimated
Sat 06:01:00 AM 55.1879 -19.3710 272° West  Level Estimated
Sat 06:02:00 AM 55.1923 -19.5861 272° West  Level Estimated
Sat 06:02:00 AM 55.0000 -20.0000 264° West 470 541 31,000  Level ETMS Enhanced Traffic Management System
Sat 06:03:00 AM 55.1962 -19.7956 272° West  Level Estimated
Sat 06:04:00 AM 55.1997 -20.0052 272° West  Level Estimated
Sat 06:05:00 AM 55.2028 -20.2147 272° West  Level Estimated
Sat 06:06:00 AM 55.2056 -20.4243 271° West  Level Estimated
Sat 06:07:00 AM 55.2081 -20.6339 271° West  Level Estimated
Sat 06:08:00 AM 54.8992 -21.5850 263° West 470 541 31,000  Level FlightAware Transoceanic
Sat 06:09:00 AM 54.8831 -21.8107 263° West 470 541 31,000  Level FlightAware Transoceanic
Sat 06:10:00 AM 54.8666 -22.0363 263° West 470 541 31,000  Level FlightAware Transoceanic
Sat 06:11:00 AM 54.8497 -22.2616 262° West 470 541 31,000  Level FlightAware Transoceanic
Sat 06:12:00 AM 54.8323 -22.4868 262° West 470 541 31,000  Level FlightAware Transoceanic
Sat 06:13:00 AM 54.8146 -22.7118 262° West 470 541 31,000  Level FlightAware Transoceanic
Sat 06:14:00 AM 54.7964 -22.9366 262° West 470 541 31,000  Level FlightAware Transoceanic
Sat 06:15:00 AM 54.7778 -23.1612 262° West 470 541 31,000  Level FlightAware Transoceanic
Sat 06:16:00 AM 54.7588 -23.3856 262° West 470 541 31,000  Level FlightAware Transoceanic
Sat 06:17:00 AM 54.7394 -23.6097 261° West 470 541 31,000  Level FlightAware Transoceanic
Sat 06:18:00 AM 54.7196 -23.8337 261° West 470 541 31,000  Level FlightAware Transoceanic
Sat 06:19:00 AM 54.6993 -24.0574 261° West 470 541 31,000  Level FlightAware Transoceanic
Sat 06:20:00 AM 54.6787 -24.2809 261° West 470 541 31,000  Level FlightAware Transoceanic
Sat 06:21:00 AM 54.6576 -24.5042 261° West 470 541 31,000  Level FlightAware Transoceanic
Sat 06:22:00 AM 54.6362 -24.7272 260° West 470 541 31,000  Level FlightAware Transoceanic
Sat 06:23:00 AM 54.6143 -24.9500 260° West 470 541 31,000  Level FlightAware Transoceanic
Sat 06:24:00 AM 54.5920 -25.1726 260° West 470 541 31,000  Level FlightAware Transoceanic
Sat 06:25:00 AM 54.5693 -25.3949 260° West 470 541 31,000  Level FlightAware Transoceanic
Sat 06:26:00 AM 54.5462 -25.6169 260° West 470 541 31,000  Level FlightAware Transoceanic
Sat 06:27:00 AM 54.5227 -25.8388 260° West 470 541 31,000  Level FlightAware Transoceanic
Sat 06:28:00 AM 54.4988 -26.0603 259° West 470 541 31,000  Level FlightAware Transoceanic
Sat 06:29:00 AM 54.4745 -26.2816 259° West 470 541 31,000  Level FlightAware Transoceanic
Sat 06:30:00 AM 54.4497 -26.5026 259° West 470 541 31,000  Level FlightAware Transoceanic
Sat 06:31:00 AM 54.4246 -26.7234 259° West 470 541 31,000  Level FlightAware Transoceanic
Sat 06:32:00 AM 54.3991 -26.9439 259° West 470 541 31,000  Level FlightAware Transoceanic
Sat 06:33:00 AM 54.3731 -27.1641 258° West 470 541 31,000  Level FlightAware Transoceanic
Sat 06:34:00 AM 54.3468 -27.3840 258° West 470 541 31,000  Level FlightAware Transoceanic
Sat 06:35:00 AM 54.3201 -27.6036 258° West 470 541 31,000  Level FlightAware Transoceanic
Sat 06:36:00 AM 54.2930 -27.8230 258° West 470 541 31,000  Level FlightAware Transoceanic
Sat 06:37:00 AM 54.2654 -28.0421 258° West 470 541 31,000  Level FlightAware Transoceanic
Sat 06:38:00 AM 54.2375 -28.2608 258° West 470 541 31,000  Level FlightAware Transoceanic
Sat 06:39:00 AM 54.2092 -28.4793 257° West 470 541 31,000  Level FlightAware Transoceanic
Sat 06:40:00 AM 54.1805 -28.6975 257° West 470 541 31,000  Level FlightAware Transoceanic
Sat 06:41:00 AM 54.1514 -28.9153 257° West 470 541 31,000  Level FlightAware Transoceanic
Sat 06:42:00 AM 54.1219 -29.1329 257° West 470 541 31,000  Level FlightAware Transoceanic
Sat 06:43:00 AM 54.0920 -29.3502 257° West 470 541 31,000  Level FlightAware Transoceanic
Sat 06:44:00 AM 54.0617 -29.5671 257° West 470 541 31,000  Level FlightAware Transoceanic
Sat 06:45:00 AM 54.0311 -29.7837 256° West 470 541 31,000  Level FlightAware Transoceanic
Sat 06:46:00 AM 54.0027 -29.9815 256° West  Level FlightAware Approximate
Sat 06:47:00 AM 53.9740 -30.1791 256° West  Level FlightAware Approximate
Sat 06:48:00 AM 53.9903 -30.1646 264° West  Level FlightAware Approximate
Sat 06:49:00 AM 53.9780 -30.3678 264° West  Level FlightAware Approximate
Sat 06:50:00 AM 53.9654 -30.5709 264° West  Level FlightAware Approximate
Sat 06:51:00 AM 53.9524 -30.7738 264° West  Level FlightAware Approximate
Sat 06:52:00 AM 53.9391 -30.9766 264° West  Level FlightAware Approximate
Sat 06:53:00 AM 53.9255 -31.1793 264° West  Level FlightAware Approximate
Sat 06:54:00 AM 53.9115 -31.3818 263° West  Level FlightAware Approximate
Sat 06:55:00 AM 53.8971 -31.5842 263° West  Level FlightAware Approximate
Sat 06:56:00 AM 53.8825 -31.7864 263° West  Level FlightAware Approximate
Sat 06:57:00 AM 53.8675 -31.9886 263° West  Level FlightAware Approximate
Sat 06:58:00 AM 53.8521 -32.1905 263° West  Level FlightAware Approximate
Sat 06:59:00 AM 53.8364 -32.3924 263° West  Level FlightAware Approximate
Sat 07:00:00 AM 53.8204 -32.5940 262° West  Level FlightAware Approximate
Sat 07:01:00 AM 53.8040 -32.7955 262° West  Level FlightAware Approximate
Sat 07:02:00 AM 53.7873 -32.9969 262° West  Level FlightAware Approximate
Sat 07:03:00 AM 53.7703 -33.1981 262° West  Level FlightAware Approximate
Sat 07:04:00 AM 53.7529 -33.3991 262° West  Level FlightAware Approximate
Sat 07:05:00 AM 53.7352 -33.6000 262° West  Level FlightAware Approximate
Sat 07:06:00 AM 53.7171 -33.8007 261° West  Level FlightAware Approximate
Sat 07:07:00 AM 53.6988 -34.0012 261° West  Level FlightAware Approximate
Sat 07:08:00 AM 53.6800 -34.2015 261° West  Level FlightAware Approximate
Sat 07:09:00 AM 53.6610 -34.4017 261° West  Level FlightAware Approximate
Sat 07:10:00 AM 53.6416 -34.6016 261° West  Level FlightAware Approximate
Sat 07:11:00 AM 53.6219 -34.8014 261° West  Level FlightAware Approximate
Sat 07:12:00 AM 53.6018 -35.0010 260° West  Level FlightAware Approximate
Sat 07:13:00 AM 53.5815 -35.2004 260° West  Level FlightAware Approximate
Sat 07:14:00 AM 53.5607 -35.3997 260° West  Level FlightAware Approximate
Sat 07:15:00 AM 53.5397 -35.5987 260° West  Level FlightAware Approximate
Sat 07:16:00 AM 53.5183 -35.7975 260° West  Level FlightAware Approximate
Sat 07:17:00 AM 53.4966 -35.9961 260° West  Level FlightAware Approximate
Sat 07:18:00 AM 53.4746 -36.1945 260° West  Level FlightAware Approximate
Sat 07:19:00 AM 53.4522 -36.3927 259° West  Level FlightAware Approximate
Sat 07:20:00 AM 53.4295 -36.5907 259° West  Level FlightAware Approximate
Sat 07:21:00 AM 53.4065 -36.7885 259° West  Level FlightAware Approximate
Sat 07:22:00 AM 53.3832 -36.9861 259° West  Level FlightAware Approximate
Sat 07:23:00 AM 53.3595 -37.1834 259° West  Level FlightAware Approximate
Sat 07:24:00 AM 53.3355 -37.3806 259° West  Level FlightAware Approximate
Sat 07:25:00 AM 53.3115 -37.5775 259° West  Level FlightAware Approximate
Sat 07:26:00 AM 53.2881 -37.7747 259° West  Level FlightAware Approximate
Sat 07:27:00 AM 53.2645 -37.9716 259° West  Level FlightAware Approximate
Sat 07:28:00 AM 53.2405 -38.1683 259° West  Level FlightAware Approximate
Sat 07:29:00 AM 53.2161 -38.3647 258° West  Level FlightAware Approximate
Sat 07:30:00 AM 53.1915 -38.5610 258° West  Level FlightAware Approximate
Sat 07:31:00 AM 53.1665 -38.7570 258° West  Level FlightAware Approximate
Sat 07:32:00 AM 53.1412 -38.9528 258° West  Level FlightAware Approximate
Sat 07:33:00 AM 53.1156 -39.1483 258° West  Level FlightAware Approximate
Sat 07:34:00 AM 53.0897 -39.3437 258° West  Level FlightAware Approximate
Sat 07:35:00 AM 53.0634 -39.5387 257° West  Level FlightAware Approximate
Sat 07:36:00 AM 53.0368 -39.7340 257° West  Level FlightAware Approximate
Sat 07:37:00 AM 53.0099 -39.9290 257° West  Level FlightAware Approximate
Sat 07:38:00 AM 52.9716 -40.1179 248° West  Level FlightAware Approximate
Sat 07:39:00 AM 52.9266 -40.3031 248° West  Level FlightAware Approximate
Sat 07:40:00 AM 52.8812 -40.4879 248° West  Level FlightAware Approximate
Sat 07:41:00 AM 52.8357 -40.6724 248° West  Level FlightAware Approximate
Sat 07:42:00 AM 52.7898 -40.8564 248° West  Level FlightAware Approximate
Sat 07:43:00 AM 52.7436 -41.0401 248° West  Level FlightAware Approximate
Sat 07:44:00 AM 52.6972 -41.2234 247° West  Level FlightAware Approximate
Sat 07:45:00 AM 52.6505 -41.4062 247° West  Level FlightAware Approximate
Sat 07:46:00 AM 52.6035 -41.5887 247° West  Level FlightAware Approximate
Sat 07:47:00 AM 52.5562 -41.7708 247° West  Level FlightAware Approximate
Sat 07:48:00 AM 52.5087 -41.9525 247° West  Level FlightAware Approximate
Sat 07:49:00 AM 52.4608 -42.1339 247° West  Level FlightAware Approximate
Sat 07:50:00 AM 52.4127 -42.3148 247° West  Level FlightAware Approximate
Sat 07:51:00 AM 52.3643 -42.4953 246° West  Level FlightAware Approximate
Sat 07:52:00 AM 52.3157 -42.6754 246° West  Level FlightAware Approximate
Sat 07:53:00 AM 52.2667 -42.8552 246° West  Level FlightAware Approximate
Sat 07:54:00 AM 52.2175 -43.0345 246° West  Level FlightAware Approximate
Sat 07:55:00 AM 52.1680 -43.2134 246° West  Level FlightAware Approximate
Sat 07:56:00 AM 52.1183 -43.3920 246° West  Level FlightAware Approximate
Sat 07:57:00 AM 52.0683 -43.5701 246° West  Level FlightAware Approximate
Sat 07:58:00 AM 52.0180 -43.7478 245° Southwest  Level FlightAware Approximate
Sat 07:59:00 AM 51.9674 -43.9252 245° Southwest  Level FlightAware Approximate
Sat 08:00:00 AM 51.9166 -44.1021 245° Southwest  Level FlightAware Approximate
Sat 08:01:00 AM 51.8656 -44.2787 245° Southwest  Level FlightAware Approximate
Sat 08:02:00 AM 51.8142 -44.4548 245° Southwest  Level FlightAware Approximate
Sat 08:03:00 AM 51.7626 -44.6305 245° Southwest  Level FlightAware Approximate
Sat 08:04:00 AM 51.7107 -44.8059 245° Southwest  Level FlightAware Approximate
Sat 08:05:00 AM 51.6586 -44.9808 244° Southwest  Level FlightAware Approximate
Sat 08:06:00 AM 51.6062 -45.1553 244° Southwest  Level FlightAware Approximate
Sat 08:07:00 AM 51.5536 -45.3294 244° Southwest  Level FlightAware Approximate
Sat 08:08:00 AM 51.5007 -45.5032 244° Southwest  Level FlightAware Approximate
Sat 08:09:00 AM 51.4475 -45.6765 244° Southwest  Level FlightAware Approximate
Sat 08:10:00 AM 51.3941 -45.8494 244° Southwest  Level FlightAware Approximate
Sat 08:11:00 AM 51.3404 -46.0219 244° Southwest  Level FlightAware Approximate
Sat 08:12:00 AM 51.2865 -46.1940 243° Southwest  Level FlightAware Approximate
Sat 08:13:00 AM 51.2323 -46.3657 243° Southwest  Level FlightAware Approximate
Sat 08:14:00 AM 51.1779 -46.5370 243° Southwest  Level FlightAware Approximate
Sat 08:15:00 AM 51.1232 -46.7079 243° Southwest  Level FlightAware Approximate
Sat 08:16:00 AM 51.0683 -46.8784 243° Southwest  Level FlightAware Approximate
Sat 08:17:00 AM 51.0131 -47.0485 243° Southwest  Level FlightAware Approximate
Sat 08:18:00 AM 50.9577 -47.2181 243° Southwest  Level FlightAware Approximate
Sat 08:19:00 AM 50.9021 -47.3874 243° Southwest  Level FlightAware Approximate
Sat 08:20:00 AM 50.8462 -47.5563 242° Southwest  Level FlightAware Approximate
Sat 08:21:00 AM 50.7900 -47.7247 242° Southwest  Level FlightAware Approximate
Sat 08:22:00 AM 50.7336 -47.8928 242° Southwest  Level FlightAware Approximate
Sat 08:23:00 AM 50.6770 -48.0604 242° Southwest  Level FlightAware Approximate
Sat 08:24:00 AM 50.6201 -48.2276 242° Southwest  Level FlightAware Approximate
Sat 08:25:00 AM 50.5630 -48.3945 242° Southwest  Level FlightAware Approximate
Sat 08:26:00 AM 50.5057 -48.5609 242° Southwest  Level FlightAware Approximate
Sat 08:27:00 AM 50.4481 -48.7270 241° Southwest  Level FlightAware Approximate
Sat 08:28:00 AM 50.3903 -48.8926 241° Southwest  Level FlightAware Approximate
Sat 08:29:00 AM 50.3322 -49.0578 241° Southwest  Level FlightAware Approximate
Sat 08:30:00 AM 50.2739 -49.2226 241° Southwest  Level FlightAware Approximate
Sat 08:31:00 AM 50.2154 -49.3870 241° Southwest  Level FlightAware Approximate
Sat 08:32:00 AM 50.1567 -49.5510 241° Southwest  Level FlightAware Approximate
Sat 08:33:00 AM 50.0977 -49.7146 241° Southwest  Level FlightAware Approximate
Sat 08:33:35 AM 49.9667 -49.9500 251° West 420 483 31,000  Level Moncton Center
Sat 08:34:00 AM 50.0385 -49.8778 241° Southwest  Level FlightAware Approximate
Sat 08:35:00 AM 49.9897 -50.0466 251° West  Level FlightAware Approximate
Sat 08:36:00 AM 49.9495 -50.2263 251° West  Level FlightAware Approximate
Sat 08:37:00 AM 49.9095 -50.4036 251° West  Level FlightAware Approximate
Sat 08:38:00 AM 49.8692 -50.5807 251° West  Level FlightAware Approximate
Sat 08:39:15 AM 49.8200 -50.8840 251° West 396 456 34,000  Level FlightAware ADS-B
Sat 08:39:50 AM 49.8040 -50.9640 253° West 396 456 34,000  Level FlightAware ADS-B
Sat 08:40:36 AM 49.7810 -51.0700 251° West 396 456 34,000  Level FlightAware ADS-B
Sat 08:41:43 AM 49.7310 -51.3180 253° West 391 450 34,000  Level FlightAware ADS-B
Sat 08:42:23 AM 49.7080 -51.4270 252° West 393 452 34,000  Level FlightAware ADS-B
Sat 08:43:13 AM 49.6810 -51.5520 252° West 395 455 34,000  Level FlightAware ADS-B
Sat 08:43:54 AM 49.6550 -51.6760 252° West 397 457 34,000  Level FlightAware ADS-B
Sat 08:44:34 AM 49.6340 -51.7720 251° West 400 460 34,000  Level FlightAware ADS-B
Sat 08:45:19 AM 49.6130 -51.8700 252° West 402 463 34,000  Level FlightAware ADS-B
Sat 08:46:00 AM 49.5890 -51.9830 252° West 403 464 34,000  Level FlightAware ADS-B
Sat 08:46:40 AM 49.5670 -52.0850 252° West 403 464 34,000  Level FlightAware ADS-B
Sat 08:47:28 AM 49.5290 -52.2560 251° West 407 468 34,000  Level FlightAware ADS-B
Sat 08:48:13 AM 49.5030 -52.3780 252° West 408 470 34,000  Level FlightAware ADS-B
Sat 08:48:53 AM 49.4780 -52.4870 251° West 408 470 34,000  Level FlightAware ADS-B
Sat 08:49:36 AM 49.4570 -52.5850 252° West 410 472 34,000  Level FlightAware ADS-B
Sat 08:50:36 AM 49.4220 -52.7410 251° West 411 473 34,000  Level FlightAware ADS-B
Sat 08:51:12 AM 49.3930 -52.8720 251° West 410 472 34,000  Level FlightAware ADS-B
Sat 08:51:58 AM 49.3650 -52.9920 250° West 408 470 34,000  Level FlightAware ADS-B
Sat 08:52:38 AM 49.3400 -53.1050 251° West 407 468 34,000  Level FlightAware ADS-B
Sat 08:53:28 AM 49.3100 -53.2330 250° West 404 465 34,000  Level FlightAware ADS-B
Sat 08:54:08 AM 49.2840 -53.3460 251° West 402 463 34,000  Level FlightAware ADS-B
Sat 08:54:49 AM 49.2660 -53.4250 251° West 401 461 34,000  Level FlightAware ADS-B
Sat 08:55:40 AM 49.2340 -53.5600 250° West 400 460 34,000  Level FlightAware ADS-B
Sat 08:56:19 AM 49.2110 -53.6590 250° West 400 460 34,000  Level FlightAware ADS-B
Sat 08:57:03 AM 49.1750 -53.8120 250° West 401 461 34,000  Level FlightAware ADS-B
Sat 08:57:48 AM 49.1470 -53.9320 250° West 402 463 34,000  Level FlightAware ADS-B
Sat 08:58:28 AM 49.1220 -54.0380 250° West 402 463 34,000  Level FlightAware ADS-B
Sat 08:59:19 AM 49.0970 -54.1410 250° West 399 459 34,000  Level FlightAware ADS-B
Sat 09:00:12 AM 49.0560 -54.3120 250° West 401 461 34,000  Level FlightAware ADS-B
Sat 09:00:58 AM 49.0260 -54.4340 249° West 401 461 34,000  Level FlightAware ADS-B
Sat 09:01:32 AM 49.0060 -54.5190 250° West 401 461 34,000  Level FlightAware ADS-B
Sat 09:02:15 AM 48.9830 -54.6110 249° West 405 466 34,000  Level FlightAware ADS-B
Sat 09:02:56 AM 48.9570 -54.7180 250° West 406 467 34,000  Level FlightAware ADS-B
Sat 09:03:38 AM 48.9210 -54.8630 249° West 406 467 34,000  Level FlightAware ADS-B
Sat 09:04:13 AM 48.8980 -54.9540 249° West 405 466 34,000  Level FlightAware ADS-B
Sat 09:05:03 AM 48.8650 -55.0890 250° West 406 467 34,000  Level FlightAware ADS-B
Sat 09:05:51 AM 48.8410 -55.1840 249° West 406 467 34,000  Level FlightAware ADS-B
Sat 09:06:51 AM 48.8000 -55.3430 249° West 408 470 34,000  Level FlightAware ADS-B
Sat 09:07:28 AM 48.7670 -55.4740 249° West 408 470 34,000  Level FlightAware ADS-B
Sat 09:08:08 AM 48.7400 -55.5810 249° West 408 470 34,000  Level FlightAware ADS-B
Sat 09:08:50 AM 48.7120 -55.6880 248° West 407 468 34,000  Level FlightAware ADS-B
Sat 09:09:24 AM 48.6910 -55.7680 248° West 407 468 34,000  Level FlightAware ADS-B
Sat 09:10:06 AM 48.6680 -55.8570 249° West 406 467 34,000  Level FlightAware ADS-B
Sat 09:11:02 AM 48.6310 -55.9970 248° West 407 468 34,000  Level FlightAware ADS-B
Sat 09:11:43 AM 48.5920 -56.1480 249° West 408 470 34,000  Level FlightAware ADS-B
Sat 09:12:28 AM 48.5610 -56.2640 248° West 408 470 34,000  Level FlightAware ADS-B
Sat 09:13:08 AM 48.5310 -56.3760 248° West 408 470 34,000  Level FlightAware ADS-B
Sat 09:13:48 AM 48.5100 -56.4530 248° West 408 470 34,000  Level FlightAware ADS-B
Sat 09:15:35 AM 48.4360 -56.7260 248° West 409 471 34,000  Level FlightAware ADS-B
Sat 09:16:28 AM 48.3910 -56.8920 248° West 409 471 34,000  Level FlightAware ADS-B
Sat 09:17:08 AM 48.3610 -57.0020 248° West 412 474 34,000  Level FlightAware ADS-B
Sat 09:17:53 AM 48.3270 -57.1240 247° West 412 474 34,000  Level FlightAware ADS-B
Sat 09:18:33 AM 48.3000 -57.2230 248° West 414 476 34,000  Level FlightAware ADS-B
Sat 09:19:28 AM 48.2570 -57.3770 247° West 412 474 34,000  Level FlightAware ADS-B
Sat 09:20:13 AM 48.2250 -57.4900 247° West 412 474 34,000  Level FlightAware ADS-B
Sat 09:20:54 AM 48.1960 -57.5930 247° West 414 476 34,000  Level FlightAware ADS-B
Sat 09:21:43 AM 48.1580 -57.7270 247° West 417 480 34,000  Level FlightAware ADS-B
Sat 09:23:03 AM 48.1070 -57.8990 246° West 417 480 34,000  Level FlightAware ADS-B
Sat 09:23:35 AM 48.0820 -57.9920 248° West 417 480 34,000  Level FlightAware ADS-B
Sat 09:24:40 AM 48.0380 -58.1380 246° West 417 480 34,000  Level FlightAware ADS-B
Sat 09:25:48 AM 47.9840 -58.3270 247° West 419 482 34,000  Level FlightAware ADS-B
Sat 09:26:43 AM 47.9280 -58.5160 246° West 418 481 34,000  Level FlightAware ADS-B
Sat 09:27:39 AM 47.8840 -58.6630 246° West 417 480 34,000  Level FlightAware ADS-B
Sat 09:28:51 AM 47.8290 -58.8450 246° West 416 479 34,000  Level FlightAware ADS-B
Sat 09:29:26 AM 47.8000 -58.9450 247° West 420 483 34,000  Level FlightAware ADS-B
Sat 09:30:13 AM 47.7700 -59.0450 246° West 420 483 34,000  Level FlightAware ADS-B
Sat 09:30:57 AM 47.7410 -59.1440 246° West 420 483 34,000  Level FlightAware ADS-B
Sat 09:31:33 AM 47.7160 -59.2250 245° Southwest 420 483 34,000  Level FlightAware ADS-B
Sat 09:32:34 AM 47.6540 -59.4270 246° West 421 484 34,000  Level FlightAware ADS-B
Sat 09:33:26 AM 47.6120 -59.5610 245° Southwest 423 487 34,000  Level FlightAware ADS-B
Sat 09:34:02 AM 47.5860 -59.6420 245° Southwest 423 487 34,000  Level FlightAware ADS-B
Sat 09:34:50 AM 47.5530 -59.7490 245° Southwest 423 487 34,000  Level FlightAware ADS-B
Sat 09:35:26 AM 47.5270 -59.8300 245° Southwest 423 487 34,000  Level FlightAware ADS-B
Sat 09:36:06 AM 47.4990 -59.9190 245° Southwest 423 487 34,000  Level FlightAware ADS-B
Sat 09:37:02 AM 47.4430 -60.1040 246° West 423 487 34,000  Level FlightAware ADS-B
Sat 09:37:39 AM 47.4170 -60.1860 245° Southwest 423 487 34,000  Level FlightAware ADS-B
Sat 09:39:08 AM 47.3410 -60.4260 245° Southwest 423 487 34,000  Level FlightAware ADS-B
Sat 09:39:44 AM 47.3160 -60.5060 245° Southwest 423 487 34,000  Level FlightAware ADS-B
Sat 09:40:33 AM 47.2810 -60.6150 245° Southwest 423 487 34,000  Level FlightAware ADS-B
Sat 09:41:16 AM 47.2160 -60.8130 244° Southwest 425 489 34,000  Level FlightAware ADS-B
Sat 09:42:01 AM 47.1870 -60.9040 245° Southwest 425 489 34,000  Level FlightAware ADS-B
Sat 09:42:59 AM 47.1420 -61.0410 244° Southwest 424 488 34,000  Level FlightAware ADS-B
Sat 09:43:46 AM 47.0990 -61.1720 244° Southwest 417 480 34,000  Level FlightAware ADS-B
Sat 09:44:30 AM 47.0530 -61.3120 244° Southwest 415 478 34,000  Level FlightAware ADS-B
Sat 09:45:10 AM 47.0200 -61.4130 244° Southwest 413 475 34,000  Level FlightAware ADS-B
Sat 09:45:50 AM 46.9950 -61.4880 244° Southwest 411 473 34,000  Level FlightAware ADS-B
Sat 09:46:25 AM 46.9680 -61.5680 244° Southwest 410 472 34,000  Level FlightAware ADS-B
Sat 09:47:15 AM 46.9330 -61.6740 244° Southwest 410 472 34,000  Level FlightAware ADS-B
Sat 09:47:52 AM 46.8850 -61.8170 244° Southwest 411 473 34,000  Level FlightAware ADS-B
Sat 09:48:48 AM 46.8390 -61.9540 244° Southwest 413 475 34,000  Level FlightAware ADS-B
Sat 09:49:30 AM 46.8030 -62.0620 244° Southwest 413 475 34,000  Level FlightAware ADS-B
Sat 09:50:07 AM 46.7820 -62.1230 243° Southwest 414 476 34,000  Level FlightAware ADS-B
Sat 09:50:48 AM 46.7480 -62.2220 243° Southwest 415 478 34,000  Level FlightAware ADS-B
Sat 09:51:37 AM 46.6990 -62.3660 244° Southwest 415 478 34,000  Level FlightAware ADS-B
Sat 09:52:18 AM 46.6600 -62.4800 244° Southwest 416 479 34,000  Level FlightAware ADS-B
Sat 09:53:34 AM 46.6020 -62.6490 244° Southwest 416 479 34,000  Level FlightAware ADS-B
Sat 09:54:10 AM 46.5750 -62.7250 243° Southwest 416 479 34,000  Level FlightAware ADS-B
Sat 09:54:47 AM 46.5470 -62.8040 243° Southwest 416 479 34,000  Level FlightAware ADS-B
Sat 09:55:14 AM 46.5270 -62.8610 243° Southwest 416 479 34,000  Level FlightAware ADS-B
Sat 09:55:50 AM 46.5010 -62.9370 244° Southwest 416 479 34,000  Level FlightAware ADS-B
Sat 09:56:39 AM 46.4640 -63.0410 243° Southwest 416 479 34,000  Level FlightAware ADS-B
Sat 09:57:15 AM 46.4370 -63.1170 243° Southwest 416 479 34,000  Level FlightAware ADS-B
Sat 09:57:51 AM 46.4110 -63.1930 244° Southwest 416 479 34,000  Level FlightAware ADS-B
Sat 09:58:28 AM 46.3830 -63.2720 243° Southwest 416 479 34,000  Level FlightAware ADS-B
Sat 09:59:04 AM 46.3560 -63.3480 243° Southwest 416 479 34,000  Level FlightAware ADS-B
Sat 09:59:53 AM 46.3200 -63.4510 243° Southwest 416 479 34,000  Level FlightAware ADS-B
Sat 10:00:31 AM 46.2920 -63.5310 243° Southwest 416 479 34,000  Level FlightAware ADS-B
Sat 10:01:33 AM 46.2460 -63.6620 243° Southwest 416 479 34,000  Level FlightAware ADS-B
Sat 10:02:09 AM 46.2190 -63.7380 243° Southwest 416 479 34,000  Level FlightAware ADS-B
Sat 10:04:50 AM 45.9930 -64.3630 243° Southwest 425 489 34,000  Level FlightAware ADS-B
Sat 10:05:25 AM 45.9600 -64.4530 242° Southwest 424 488 34,000  Level FlightAware ADS-B
Sat 10:06:18 AM 45.9130 -64.5820 242° Southwest 425 489 34,000  Level FlightAware ADS-B
Sat 10:07:30 AM 45.8560 -64.7340 242° Southwest 425 489 34,000  Level FlightAware ADS-B
Sat 10:08:36 AM 45.7960 -64.8980 242° Southwest 426 490 34,000  Level FlightAware ADS-B
Sat 10:09:24 AM 45.7400 -65.0450 241° Southwest 427 491 34,000  Level FlightAware ADS-B
Sat 10:10:09 AM 45.6970 -65.1610 242° Southwest 428 493 34,000  Level FlightAware ADS-B
Sat 10:10:36 AM 45.6730 -65.2250 242° Southwest 430 495 34,000  Level FlightAware ADS-B
Sat 10:11:25 AM 45.6260 -65.3490 242° Southwest 430 495 34,000  Level FlightAware ADS-B
Sat 10:12:02 AM 45.5910 -65.4410 241° Southwest 431 496 34,000  Level FlightAware ADS-B
Sat 10:12:41 AM 45.5600 -65.5210 241° Southwest 432 497 34,000  Level FlightAware ADS-B
Sat 10:13:22 AM 45.5260 -65.6130 242° Southwest 432 497 34,000  Level FlightAware ADS-B
Sat 10:14:02 AM 45.4890 -65.7090 241° Southwest 432 497 34,000  Level FlightAware ADS-B
Sat 10:14:40 AM 45.4520 -65.8030 241° Southwest 432 497 34,000  Level FlightAware ADS-B
Sat 10:15:23 AM 45.3990 -65.9430 242° Southwest 432 497 34,000  Level FlightAware ADS-B
Sat 10:16:17 AM 45.3470 -66.0760 241° Southwest 431 496 34,000  Level FlightAware ADS-B
Sat 10:16:54 AM 45.3210 -66.1430 241° Southwest 431 496 34,000  Level FlightAware ADS-B
Sat 10:17:43 AM 45.2760 -66.2590 241° Southwest 431 496 34,000  Level FlightAware ADS-B
Sat 10:18:21 AM 45.2390 -66.3520 241° Southwest 430 495 34,000  Level FlightAware ADS-B
Sat 10:19:06 AM 45.1830 -66.4930 241° Southwest 428 493 34,000  Level FlightAware ADS-B
Sat 10:19:49 AM 45.1430 -66.5960 241° Southwest 426 490 34,000  Level FlightAware ADS-B
Sat 10:20:29 AM 45.1040 -66.6930 240° Southwest 424 488 34,000  Level FlightAware ADS-B
Sat 10:21:14 AM 45.0610 -66.8020 241° Southwest 421 484 34,000  Level FlightAware ADS-B
Sat 10:21:49 AM 45.0270 -66.8850 240° Southwest 421 484 34,000  Level FlightAware ADS-B
Sat 10:22:34 AM 44.9930 -66.9700 241° Southwest 421 484 34,000  Level FlightAware ADS-B
Sat 10:23:16 AM 44.9560 -67.0640 241° Southwest 421 484 34,000  Level FlightAware ADS-B
Sat 10:24:00 AM 44.9140 -67.1680 240° Southwest 422 486 34,000  Level FlightAware ADS-B
Sat 10:24:36 AM 44.8790 -67.2550 240° Southwest 423 487 34,000  Level FlightAware ADS-B
Sat 10:25:16 AM 44.8410 -67.3500 241° Southwest 424 488 34,000  Level FlightAware ADS-B
Sat 10:25:59 AM 44.7860 -67.4860 240° Southwest 428 493 34,000  Level FlightAware ADS-B
Sat 10:26:43 AM 44.7420 -67.5930 240° Southwest 429 494 34,000  Level FlightAware ADS-B
Sat 10:27:21 AM 44.7050 -67.6850 241° Southwest 430 495 34,000  Level FlightAware ADS-B
Sat 10:28:05 AM 44.6620 -67.7910 240° Southwest 430 495 34,000  Level FlightAware ADS-B
Sat 10:28:42 AM 44.6250 -67.8790 239° Southwest 431 496 34,000  Level FlightAware ADS-B
Sat 10:29:22 AM 44.5880 -67.9710 241° Southwest 431 496 34,000  Level FlightAware ADS-B
Sat 10:30:02 AM 44.5580 -68.0440 240° Southwest 431 496 34,000  Level FlightAware ADS-B
Sat 10:31:01 AM 44.4980 -68.1890 240° Southwest 432 497 34,000  Level FlightAware ADS-B
Sat 10:31:42 AM 44.4580 -68.2840 239° Southwest 432 497 34,000  Level FlightAware ADS-B
Sat 10:32:23 AM 44.4170 -68.3820 240° Southwest 432 497 34,000  Level FlightAware ADS-B
Sat 10:33:12 AM 44.3560 -68.5270 240° Southwest 432 497 34,000  Level FlightAware ADS-B
Sat 10:33:50 AM 44.3160 -68.6220 240° Southwest 432 497 34,000  Level FlightAware ADS-B
Sat 10:34:40 AM 44.2690 -68.7340 240° Southwest 433 498 34,000  Level FlightAware ADS-B
Sat 10:35:44 AM 44.2070 -68.8780 239° Southwest 432 497 34,000  Level FlightAware ADS-B
Sat 10:36:20 AM 44.1760 -68.9510 239° Southwest 432 497 34,000  Level FlightAware ADS-B
Sat 10:37:03 AM 44.1350 -69.0460 239° Southwest 431 496 34,000  Level FlightAware ADS-B
Sat 10:38:04 AM 44.0750 -69.1860 239° Southwest 431 496 34,000  Level FlightAware ADS-B
Sat 10:38:42 AM 44.0300 -69.2900 239° Southwest 429 494 34,000  Level FlightAware ADS-B
Sat 10:39:24 AM 43.9880 -69.3860 239° Southwest 429 494 34,000  Level FlightAware ADS-B
Sat 10:40:10 AM 43.9290 -69.5230 239° Southwest 424 488 34,000  Level FlightAware ADS-B
Sat 10:40:45 AM 43.8930 -69.6050 239° Southwest 429 494 34,000  Level FlightAware ADS-B
Sat 10:41:25 AM 43.8520 -69.6980 239° Southwest 428 493 34,000  Level FlightAware ADS-B
Sat 10:42:10 AM 43.8050 -69.8030 238° Southwest 429 494 34,000  Level FlightAware ADS-B
Sat 10:42:53 AM 43.7680 -69.8860 238° Southwest 429 494 34,000  Level FlightAware ADS-B
Sat 10:43:36 AM 43.7280 -69.9780 239° Southwest 429 494 34,000  Level FlightAware ADS-B
Sat 10:44:18 AM 43.6860 -70.0720 238° Southwest 429 494 34,000  Level FlightAware ADS-B
Sat 10:45:00 AM 43.6340 -70.1860 238° Southwest 431 496 34,000  Level FlightAware ADS-B
Sat 10:45:40 AM 43.5870 -70.2910 238° Southwest 431 496 34,000  Level FlightAware ADS-B
Sat 10:46:20 AM 43.5440 -70.3850 238° Southwest 431 496 34,000  Level FlightAware ADS-B
Sat 10:47:14 AM 43.4990 -70.4850 238° Southwest 432 497 34,000  Level FlightAware ADS-B
Sat 10:47:57 AM 43.4500 -70.5880 237° Southwest 433 498 34,000  Level FlightAware ADS-B
Sat 10:48:38 AM 43.3860 -70.7000 232° Southwest 435 501 34,000  Level FlightAware ADS-B
Sat 10:49:18 AM 43.3360 -70.7840 231° Southwest 435 501 34,000  Level FlightAware ADS-B
Sat 10:49:56 AM 43.2870 -70.8670 231° Southwest 438 504 34,000  Level FlightAware ADS-B
Sat 10:50:39 AM 43.2420 -70.9440 231° Southwest 439 505 34,000  Level FlightAware ADS-B
Sat 10:51:17 AM 43.2000 -71.0130 230° Southwest 438 504 34,000  Level FlightAware ADS-B
Sat 10:51:56 AM 43.1490 -71.1000 231° Southwest 438 504 34,000  Level FlightAware ADS-B
Sat 10:52:46 AM 43.0710 -71.2310 231° Southwest 437 503 34,000  Level FlightAware ADS-B
Sat 10:53:22 AM 43.0240 -71.3090 231° Southwest 437 503 34,000  Level FlightAware ADS-B
Sat 10:54:08 AM 42.9650 -71.4080 231° Southwest 437 503 34,000  Level FlightAware ADS-B
Sat 10:54:55 AM 42.9210 -71.4810 231° Southwest 437 503 34,000  Level FlightAware ADS-B
Sat 10:55:37 AM 42.8660 -71.5730 231° Southwest 437 503 34,000  Level FlightAware ADS-B
Sat 10:56:14 AM 42.8190 -71.6500 230° Southwest 438 504 34,000  Level FlightAware ADS-B
Sat 10:56:56 AM 42.7500 -71.7640 231° Southwest 438 504 34,000  Level FlightAware ADS-B
Sat 10:57:36 AM 42.7070 -71.8350 231° Southwest 438 504 34,000  Level FlightAware ADS-B
Sat 10:58:19 AM 42.6570 -71.9170 230° Southwest 438 504 34,000  Level FlightAware ADS-B
Sat 10:58:58 AM 42.5910 -72.0240 230° Southwest 441 507 34,000  Level FlightAware ADS-B
Sat 10:59:42 AM 42.5350 -72.1160 230° Southwest 440 506 34,000  Level FlightAware ADS-B
Sat 11:00:24 AM 42.4790 -72.2060 230° Southwest 442 509 34,000  Level FlightAware ADS-B
Sat 11:00:54 AM 42.4420 -72.2660 230° Southwest 444 511 34,000  Level FlightAware ADS-B
Sat 11:01:28 AM 42.3960 -72.3410 230° Southwest 445 512 34,000  Level FlightAware ADS-B
Sat 11:02:07 AM 42.3600 -72.3980 229° Southwest 445 512 34,000  Level FlightAware ADS-B
Sat 11:02:55 AM 42.2970 -72.4990 230° Southwest 445 512 34,000  Level FlightAware ADS-B
Sat 11:03:24 AM 42.2580 -72.5620 230° Southwest 444 511 34,000  Level FlightAware ADS-B
Sat 11:04:08 AM 42.1850 -72.6790 230° Southwest 444 511 34,000  Level FlightAware ADS-B
Sat 11:04:54 AM 42.1260 -72.7790 232° Southwest 443 510 34,000  Level FlightAware ADS-B
Sat 11:05:32 AM 42.0790 -72.8590 232° Southwest 442 509 34,000  Level FlightAware ADS-B
Sat 11:06:17 AM 42.0210 -72.9560 231° Southwest 444 511 34,000  Level FlightAware ADS-B
Sat 11:06:56 AM 41.9740 -73.0320 230° Southwest 445 512 34,000  Level FlightAware ADS-B
Sat 11:07:38 AM 41.9110 -73.1250 228° Southwest 447 514 34,000  Level FlightAware ADS-B
Sat 11:08:16 AM 41.8570 -73.2060 228° Southwest 448 516 34,000  Level FlightAware ADS-B
Sat 11:09:01 AM 41.7932 -73.2993 227° Southwest 447 514 34,000  Level FlightAware ADS-B
Sat 11:09:34 AM 41.7473 -73.3671 228° Southwest 448 516 34,000  Level FlightAware ADS-B
Sat 11:10:05 AM 41.7045 -73.4301 228° Southwest 449 517 34,000  Level FlightAware ADS-B
Sat 11:10:36 AM 41.6608 -73.4947 228° Southwest 450 518 34,000  Level FlightAware ADS-B
Sat 11:11:08 AM 41.6171 -73.5586 228° Southwest 452 520 34,000  Level FlightAware ADS-B
Sat 11:11:38 AM 41.5745 -73.6212 228° Southwest 453 521 34,000  Level FlightAware ADS-B
Sat 11:12:09 AM 41.5303 -73.6861 228° Southwest 454 522 34,000  Level FlightAware ADS-B
Sat 11:12:42 AM 41.4846 -73.7530 228° Southwest 455 524 34,000  Level FlightAware ADS-B
Sat 11:13:14 AM 41.4391 -73.8194 228° Southwest 456 525 34,000  Level FlightAware ADS-B
Sat 11:13:44 AM 41.3957 -73.8824 227° Southwest 457 526 34,000  Level FlightAware ADS-B
Sat 11:14:15 AM 41.3519 -73.9461 228° Southwest 458 527 34,000  Level FlightAware ADS-B
Sat 11:14:18 AM 41.3476 -73.9523 227° Southwest 458 527 34,000  Level FlightAware ADS-B
Sat 11:15:00 AM 41.2868 -74.0404 227° Southwest 458 527 34,000  Level FlightAware ADS-B
Sat 11:15:35 AM 41.2379 -74.1112 227° Southwest 458 527 34,000  Level FlightAware ADS-B
Sat 11:16:06 AM 41.1936 -74.1754 227° Southwest 459 528 34,000  Level FlightAware ADS-B
Sat 11:16:37 AM 41.1492 -74.2393 227° Southwest 458 527 34,000  Level FlightAware ADS-B
Sat 11:17:07 AM 41.1053 -74.3028 227° Southwest 459 528 34,000  Level FlightAware ADS-B
Sat 11:17:38 AM 41.0604 -74.3671 227° Southwest 459 528 34,000  Level FlightAware ADS-B
Sat 11:18:10 AM 41.0144 -74.4329 227° Southwest 459 528 34,000  Level FlightAware ADS-B
Sat 11:18:43 AM 40.9672 -74.5004 227° Southwest 459 528 34,000  Level FlightAware ADS-B
Sat 11:19:14 AM 40.9234 -74.5627 227° Southwest 458 527 34,000  Level FlightAware ADS-B
Sat 11:19:44 AM 40.8795 -74.6252 227° Southwest 458 527 34,000  Level FlightAware ADS-B
Sat 11:20:16 AM 40.8344 -74.6898 227° Southwest 457 526 34,000  Level FlightAware ADS-B
Sat 11:20:46 AM 40.7902 -74.7526 227° Southwest 457 526 34,000  Level FlightAware ADS-B
Sat 11:21:18 AM 40.7451 -74.8165 227° Southwest 458 527 34,000  Level FlightAware ADS-B
Sat 11:21:49 AM 40.7008 -74.8789 227° Southwest 457 526 34,000  Level FlightAware ADS-B
Sat 11:22:20 AM 40.6558 -74.9423 227° Southwest 457 526 34,000  Level FlightAware ADS-B
Sat 11:22:50 AM 40.6117 -75.0044 227° Southwest 457 526 34,000  Level FlightAware ADS-B
Sat 11:23:21 AM 40.5679 -75.0660 227° Southwest 457 526 34,000  Level FlightAware ADS-B
Sat 11:23:51 AM 40.5243 -75.1271 227° Southwest 456 525 34,000  Level FlightAware ADS-B
Sat 11:24:21 AM 40.4809 -75.1880 227° Southwest 456 525 34,000  Level FlightAware ADS-B
Sat 11:24:54 AM 40.4337 -75.2540 227° Southwest 451 519 34,000  Level FlightAware ADS-B
Sat 11:25:24 AM 40.3906 -75.3141 227° Southwest 450 518 34,000  Level FlightAware ADS-B
Sat 11:25:55 AM 40.3473 -75.3741 227° Southwest 448 516 34,000  Level FlightAware ADS-B
Sat 11:26:25 AM 40.3048 -75.4332 227° Southwest 446 513 34,000  Level FlightAware ADS-B
Sat 11:26:55 AM 40.2619 -75.4930 227° Southwest 446 513 34,000  Level FlightAware ADS-B
Sat 11:27:24 AM 40.2229 -75.5527 229° Southwest 445 512 34,000  Level FlightAware ADS-B
Sat 11:27:56 AM 40.1817 -75.6191 231° Southwest 445 512 34,000  Level FlightAware ADS-B
Sat 11:28:27 AM 40.1419 -75.6838 231° Southwest 444 511 34,000  Level FlightAware ADS-B
Sat 11:28:58 AM 40.1021 -75.7479 231° Southwest 443 510 34,000  Level FlightAware ADS-B
Sat 11:29:28 AM 40.0632 -75.8103 231° Southwest 444 511 34,000  Level FlightAware ADS-B
Sat 11:30:00 AM 40.0217 -75.8766 231° Southwest 445 512 34,000  Level FlightAware ADS-B
Sat 11:30:32 AM 39.9807 -75.9422 231° Southwest 445 512 34,000  Level FlightAware ADS-B
Sat 11:31:03 AM 39.9406 -76.0061 231° Southwest 446 513 34,000  Level FlightAware ADS-B
Sat 11:31:35 AM 39.8986 -76.0726 231° Southwest 447 514 34,000  Level FlightAware ADS-B
Sat 11:32:05 AM 39.8590 -76.1353 231° Southwest 447 514 34,000  Level FlightAware ADS-B
Sat 11:32:38 AM 39.8155 -76.2047 231° Southwest 447 514 34,000  Level FlightAware ADS-B
Sat 11:33:10 AM 39.7735 -76.2715 231° Southwest 448 516 34,000  Level FlightAware ADS-B
Sat 11:33:40 AM 39.7342 -76.3339 231° Southwest 449 517 34,000  Level FlightAware ADS-B
Sat 11:34:12 AM 39.6925 -76.3995 230° Southwest 449 517 34,000  Level FlightAware ADS-B
Sat 11:34:43 AM 39.6513 -76.4649 231° Southwest 450 518 34,000  Level FlightAware ADS-B
Sat 11:35:14 AM 39.6111 -76.5281 230° Southwest 449 517 34,000  Level FlightAware ADS-B
Sat 11:35:44 AM 39.5710 -76.5911 230° Southwest 449 517 34,000  Level FlightAware ADS-B
Sat 11:36:16 AM 39.5287 -76.6575 230° Southwest 448 516 34,000  Level FlightAware ADS-B
Sat 11:36:50 AM 39.4847 -76.7263 230° Southwest 449 517 34,000  Level FlightAware ADS-B
Sat 11:37:20 AM 39.4446 -76.7890 230° Southwest 450 518 34,000  Level FlightAware ADS-B
Sat 11:37:50 AM 39.4047 -76.8513 230° Southwest 450 518 34,000  Level FlightAware ADS-B
Sat 11:38:22 AM 39.3620 -76.9181 230° Southwest 451 519 34,000  Level FlightAware ADS-B
Sat 11:38:54 AM 39.3192 -76.9843 230° Southwest 450 518 34,000  Level FlightAware ADS-B
Sat 11:39:25 AM 39.2790 -77.0469 230° Southwest 452 520 34,000  Level FlightAware ADS-B
Sat 11:39:58 AM 39.2346 -77.1155 230° Southwest 452 520 34,000  Level FlightAware ADS-B
Sat 11:40:30 AM 39.1922 -77.1810 230° Southwest 451 519 34,000  Level FlightAware ADS-B
Sat 11:41:01 AM 39.1507 -77.2451 230° Southwest 449 517 34,000  Level FlightAware ADS-B
Sat 11:41:32 AM 39.1097 -77.3082 230° Southwest 449 517 34,000  Level FlightAware ADS-B
Sat 11:42:03 AM 39.0683 -77.3718 230° Southwest 450 518 34,000  Level FlightAware ADS-B
Sat 11:42:33 AM 39.0280 -77.4336 230° Southwest 450 518 34,000  Level FlightAware ADS-B
Sat 11:43:04 AM 38.9868 -77.4968 230° Southwest 450 518 34,000  Level FlightAware ADS-B
Sat 11:43:38 AM 38.9416 -77.5656 230° Southwest 451 519 34,000  Level FlightAware ADS-B
Sat 11:44:13 AM 38.8950 -77.6360 230° Southwest 451 519 34,000  Level FlightAware ADS-B
Sat 11:44:33 AM 38.8674 -77.6784 230° Southwest 451 519 34,000  Level FlightAware ADS-B
Sat 11:45:22 AM 38.8009 -77.7793 230° Southwest 451 519 34,000  Level FlightAware ADS-B
Sat 11:46:10 AM 38.7360 -77.8770 230° Southwest 454 522 34,000  Level FlightAware ADS-B
Sat 11:46:52 AM 38.6800 -77.9620 230° Southwest 456 525 34,000  Level FlightAware ADS-B
Sat 11:47:44 AM 38.6190 -78.0540 230° Southwest 455 524 34,000  Level FlightAware ADS-B
Sat 11:48:25 AM 38.5730 -78.1220 229° Southwest 454 522 34,000  Level FlightAware ADS-B
Sat 11:49:28 AM 38.4910 -78.2450 230° Southwest 452 520 34,000  Level FlightAware ADS-B
Sat 11:50:13 AM 38.4100 -78.3650 229° Southwest 461 531 34,000  Level FlightAware ADS-B
Sat 11:50:54 AM 38.3470 -78.4590 230° Southwest 461 531 34,000  Level FlightAware ADS-B
Sat 11:51:28 AM 38.3000 -78.5280 229° Southwest 461 531 34,000  Level FlightAware ADS-B
Sat 11:52:11 AM 38.2410 -78.6160 230° Southwest 460 529 34,000  Level FlightAware ADS-B
Sat 11:52:50 AM 38.1860 -78.6960 229° Southwest 460 529 34,000  Level FlightAware ADS-B
Sat 11:53:25 AM 38.1420 -78.7610 229° Southwest 454 522 34,000  Level FlightAware ADS-B
Sat 11:54:13 AM 38.0850 -78.8430 229° Southwest 454 522 34,000  Level FlightAware ADS-B
Sat 11:54:48 AM 38.0400 -78.9100 230° Southwest 465 535 34,000  Level FlightAware ADS-B
Sat 11:55:47 AM 37.9560 -79.0320 229° Southwest 462 532 34,000  Level FlightAware ADS-B
Sat 11:56:25 AM 37.9030 -79.1080 229° Southwest 460 529 34,000  Level FlightAware ADS-B
Sat 11:57:10 AM 37.8200 -79.2230 228° Southwest 462 532 34,000  Level FlightAware ADS-B
Sat 11:57:50 AM 37.7610 -79.3040 227° Southwest 460 529 34,000  Level FlightAware ADS-B
Sat 11:58:51 AM 37.6830 -79.4120 228° Southwest 461 531 34,000  Level FlightAware ADS-B
Sat 11:59:32 AM 37.6230 -79.4950 228° Southwest 462 532 34,000  Level FlightAware ADS-B
Sat 12:00:08 PM 37.5780 -79.5550 227° Southwest 462 532 34,000  Level FlightAware ADS-B
Sat 12:00:50 PM 37.5260 -79.6260 227° Southwest 462 532 34,000  Level FlightAware ADS-B
Sat 12:01:25 PM 37.4830 -79.6840 227° Southwest 462 532 34,000  Level FlightAware ADS-B
Sat 12:02:08 PM 37.4300 -79.7560 227° Southwest 462 532 34,000  Level FlightAware ADS-B
Sat 12:02:44 PM 37.3850 -79.8170 227° Southwest 462 532 34,000  Level FlightAware ADS-B
Sat 12:03:20 PM 37.3400 -79.8770 227° Southwest 462 532 34,000  Level FlightAware ADS-B
Sat 12:04:00 PM 37.2910 -79.9440 227° Southwest 462 532 34,000  Level FlightAware ADS-B
Sat 12:05:02 PM 37.2140 -80.0470 227° Southwest 462 532 34,000  Level FlightAware ADS-B
Sat 12:05:38 PM 37.1690 -80.1070 227° Southwest 462 532 34,000  Level FlightAware ADS-B
Sat 12:06:25 PM 37.1110 -80.1850 227° Southwest 462 532 34,000  Level FlightAware ADS-B
Sat 12:07:01 PM 37.0670 -80.2450 227° Southwest 462 532 34,000  Level FlightAware ADS-B
Sat 12:07:51 PM 37.0050 -80.3290 227° Southwest 462 532 34,000  Level FlightAware ADS-B
Sat 12:08:29 PM 36.9570 -80.3920 226° Southwest 462 532 34,000  Level FlightAware ADS-B
Sat 12:09:19 PM 36.7375 -80.7414 226° Southwest 471 542 34,000 -302 Level Atlanta Center
Sat 12:15:06 PM 36.3416 -81.4635 226° Southwest 473 544 32,000 -308 Descending FlightAware ADS-B
Sat 12:15:49 PM 36.2866 -81.5599 235° Southwest 474 545 32,000  Level FlightAware ADS-B
Sat 12:18:37 PM 36.0509 -81.9158 231° Southwest 485 558 32,000  Level FlightAware ADS-B
Sat 12:19:08 PM 36.0072 -81.9807 230° Southwest 484 557 32,000  Level FlightAware ADS-B
Sat 12:19:38 PM 35.9630 -82.0461 230° Southwest 484 557 32,000  Level FlightAware ADS-B
Sat 12:20:03 PM 35.9274 -82.0990 230° Southwest 483 556 32,000  Level FlightAware ADS-B
Sat 12:20:16 PM 35.9085 -82.1231 226° Southwest 482 555 32,000  Level FlightAware ADS-B
Sat 12:20:38 PM 35.8686 -82.1607 217° Southwest 482 555 32,000  Level FlightAware ADS-B
Sat 12:21:09 PM 35.8122 -82.2065 213° Southwest 482 555 32,000  Level FlightAware ADS-B
Sat 12:21:41 PM 35.7525 -82.2551 213° Southwest 482 555 32,000  Level FlightAware ADS-B
Sat 12:22:11 PM 35.6956 -82.3015 214° Southwest 481 554 32,000  Level FlightAware ADS-B
Sat 12:22:34 PM 35.6528 -82.3363 213° Southwest 481 554 32,000  Level FlightAware ADS-B
Sat 12:23:05 PM 35.5957 -82.3796 212° Southwest 481 554 32,000  Level FlightAware ADS-B
Sat 12:23:35 PM 35.5388 -82.4228 212° Southwest 481 554 32,000 -100 Level FlightAware ADS-B
Sat 12:24:05 PM 35.4805 -82.4671 212° Southwest 478 550 31,900 -484 Descending FlightAware ADS-B
Sat 12:24:37 PM 35.4221 -82.5114 212° Southwest 466 536 31,500 -774 Descending FlightAware ADS-B
Sat 12:25:07 PM 35.3686 -82.5556 214° Southwest 447 514 31,100 -689 Descending FlightAware ADS-B
Sat 12:25:38 PM 35.3204 -82.6010 218° Southwest 426 490 30,800 -689 Descending FlightAware ADS-B
Sat 12:26:08 PM 35.2747 -82.6456 219° Southwest 411 473 30,400 -667 Descending FlightAware ADS-B
Sat 12:26:50 PM 35.2143 -82.7061 219° Southwest 404 465 30,000 -1,068 Descending FlightAware ADS-B
Sat 12:27:21 PM 35.1692 -82.7512 219° Southwest 399 459 29,100 -1,645 Descending FlightAware ADS-B
Sat 12:27:52 PM 35.1261 -82.7943 219° Southwest 392 451 28,300 -1,574 Descending FlightAware ADS-B
Sat 12:28:22 PM 35.0835 -82.8364 219° Southwest 388 447 27,500 -1,600 Descending FlightAware ADS-B
Sat 12:28:52 PM 35.0413 -82.8781 219° Southwest 383 441 26,700 -1,548 Descending FlightAware ADS-B
Sat 12:29:24 PM 34.9982 -82.9205 219° Southwest 376 433 25,900 -1,548 Descending FlightAware ADS-B
Sat 12:29:54 PM 34.9579 -82.9604 219° Southwest 370 426 25,100 -1,574 Descending FlightAware ADS-B
Sat 12:30:25 PM 34.9167 -83.0008 219° Southwest 365 420 24,300 -1,015 Descending FlightAware ADS-B
Sat 12:30:59 PM 34.8728 -83.0439 219° Southwest 357 411 24,000 -200 Descending FlightAware ADS-B
Sat 12:31:55 PM 34.7993 -83.1158 219° Southwest 372 428 24,000 -200 Level FlightAware ADS-B
Sat 12:32:29 PM 34.7532 -83.1613 219° Southwest 391 450 23,700 -738 Descending FlightAware ADS-B
Sat 12:33:00 PM 34.7081 -83.2054 219° Southwest 396 456 23,200 -968 Descending FlightAware ADS-B
Sat 12:33:31 PM 34.6643 -83.2478 219° Southwest 398 458 22,700 -968 Descending FlightAware ADS-B
Sat 12:34:02 PM 34.6202 -83.2911 219° Southwest 399 459 22,200 -1,068 Descending FlightAware ADS-B
Sat 12:34:44 PM 34.5601 -83.3494 219° Southwest 394 453 21,400 -1,458 Descending FlightAware ADS-B
Sat 12:35:49 PM 34.4700 -83.4370 219° Southwest 384 442 19,600 -1,761 Descending FlightAware ADS-B
Sat 12:36:33 PM 34.4080 -83.4970 219° Southwest 375 432 18,200 -1,902 Descending FlightAware ADS-B
Sat 12:37:11 PM 34.3580 -83.5460 219° Southwest 368 423 17,000 -1,747 Descending FlightAware ADS-B
Sat 12:37:52 PM 34.3200 -83.5820 218° Southwest 365 420 15,900 -1,714 Descending FlightAware ADS-B
Sat 12:38:35 PM 34.2620 -83.6390 219° Southwest 360 414 14,600 -1,976 Descending FlightAware ADS-B
Sat 12:39:17 PM 34.1930 -83.7060 219° Southwest 356 410 13,100 -1,286 Descending FlightAware ADS-B
Sat 12:40:55 PM 34.0800 -83.8150 219° Southwest 304 350 11,600 -1,015 Descending FlightAware ADS-B
Sat 12:41:27 PM 34.0450 -83.8510 220° Southwest 303 349 10,900 -1,135 Descending FlightAware ADS-B
Sat 12:42:09 PM 34.0010 -83.8950 220° Southwest 286 329 10,200 -857 Descending FlightAware ADS-B
Sat 12:42:23 PM 33.9830 -83.8990 190° South 279 321 10,100 -714 Descending FlightAware ADS-B
Sat 12:42:51 PM 33.9480 -83.9000 181° South 267 307 9,700 -857 Descending FlightAware ADS-B
Sat 12:43:05 PM 33.9310 -83.9000 180° South 260 299 9,500 -558 Descending FlightAware ADS-B
Sat 12:43:34 PM 33.9100 -83.9000 180° South 252 290 9,300 -612 Descending FlightAware ADS-B
Sat 12:43:54 PM 33.8890 -83.9010 182° South 250 288 9,000 -1,135 Descending FlightAware ADS-B
Sat 12:44:11 PM 33.8680 -83.9010 180° South 250 288 8,600 -1,031 Descending FlightAware ADS-B
Sat 12:44:58 PM 33.8160 -83.8990 178° South 243 280 7,900 -483 Descending FlightAware ADS-B
Sat 12:45:38 PM 33.7700 -83.8990 180° South 246 283 7,900 -300 Level FlightAware ADS-B
Sat 12:45:58 PM 33.7350 -83.8980 179° South 248 285 7,600 -1,024 Descending FlightAware ADS-B
Sat 12:46:19 PM 33.7080 -83.8960 176° South 244 281 7,200 -894 Descending FlightAware ADS-B
Sat 12:46:45 PM 33.6790 -83.8940 177° South 239 275 6,900 -522 Descending FlightAware ADS-B
Sat 12:47:05 PM 33.6590 -83.9030 201° Southwest 235 270 6,800 -563 Descending FlightAware ADS-B
Sat 12:47:17 PM 33.6510 -83.9150 231° Southwest 233 268 6,600 -1,171 Descending FlightAware ADS-B
Sat 12:47:46 PM 33.6410 -83.9490 251° West 231 266 6,000 -737 Descending FlightAware ADS-B
Sat 12:48:14 PM 33.6380 -83.9840 264° West 207 238 5,900 -111 Descending FlightAware ADS-B
Sat 12:48:40 PM 33.6380 -84.0140 270° West 196 226 5,900 -214 Level FlightAware ADS-B
Sat 12:49:10 PM 33.6370 -84.0460 268° West 199 229 5,700 -429 Descending FlightAware ADS-B
Sat 12:49:22 PM 33.6380 -84.0570 276° West 194 223 5,600 -308 Descending FlightAware ADS-B
Sat 12:49:49 PM 33.6380 -84.0740 270° West 194 223 5,500 -453 Descending FlightAware ADS-B
Sat 12:50:15 PM 33.6380 -84.1020 270° West 196 226 5,200 -846 Descending FlightAware ADS-B
Sat 12:51:07 PM 33.6380 -84.1570 270° West 193 222 4,400 -923 Descending FlightAware ADS-B
Sat 12:53:00 PM 33.5334 -84.3958 270° West  Level FlightAware Approximate
Sat 12:54:00 PM 33.6367 -84.4279 270° West  Level Estimated
Sat 12:55:00 PM 33.6367 -84.4279 246° West  Level Estimated
Sat 12:56:00 PM 33.6367 -84.4279 66° East  Level Estimated
Sat 12:57:00 PM 33.6367 -84.4279 64° Northeast  Level Estimated
Sat 12:58:00 PM 33.6367 -84.4279 64° Northeast  Level Estimated
Sat 12:59:00 PM 33.6367 -84.4279 64° Northeast  Level Estimated
Sat 01:00:00 PM 33.6367 -84.4279 64° Northeast  Level Estimated
Sat 01:01:00 PM 33.6367 -84.4279 64° Northeast  Level Estimated
Sat 01:02:00 PM 33.6367 -84.4279 64° Northeast  Level Estimated
Sat 01:03:00 PM 33.6367 -84.4279 64° Northeast  Level Estimated
Sat 01:04:00 PM 33.6367 -84.4279 64° Northeast  Level Estimated
Sat 01:05:00 PM 33.6367 -84.4279 64° Northeast  Level Estimated
Sat 01:06:00 PM 33.6367 -84.4279 64° Northeast  Level Estimated
Sat 01:07:00 PM 33.6367 -84.4279 64° Northeast  Level Estimated

Login

Don't have an account? Register now (free) for customized features, flight alerts, and more!